Time;durP1;ratioP1;P1;durP2;ratioP2;P2;SDS_P1;SDS_P2;PMS_P1;PMS_P2;Temp;Humidity;BMP_temperature;BMP_pressure;BME280_temperature;BME280_humidity;BME280_pressure;Samples;Min_cycle;Max_cycle;Signal;HPM_P1;HPM_P2
2023/02/09 00:00:54;;;;;;;9.57;7.13;;;;;;;;;;5030841;28;20414;-73
2023/02/09 00:03:19;;;;;;;10.67;7.07;;;;;;;;;;5030948;28;20271;-74
2023/02/09 00:05:47;;;;;;;8.93;7.07;;;;;;;;;;5031313;28;20168;-73
2023/02/09 00:08:13;;;;;;;9.07;7.20;;;;;;;;;;5029641;28;20189;-73
2023/02/09 00:10:38;;;;;;;9.93;7.50;;;;;;;;;;5031199;28;20406;-73
2023/02/09 00:13:21;;;;;;;9.50;7.70;;;;;;;;;;5030788;28;20673;-73
2023/02/09 00:15:57;;;;;;;9.00;6.93;;;;;;;;;;5031167;28;20187;-73
2023/02/09 00:18:23;;;;;;;9.50;7.00;;;;;;;;;;5029525;28;20966;-73
2023/02/09 00:20:59;;;;;;;12.00;7.90;;;;;;;;;;5019426;28;20415;-73
2023/02/09 00:23:24;;;;;;;12.13;7.67;;;;;;;;;;5030688;28;20450;-73
2023/02/09 00:25:50;;;;;;;10.33;7.97;;;;;;;;;;5030492;28;20403;-73
2023/02/09 00:28:16;;;;;;;10.00;7.43;;;;;;;;;;5029953;28;20207;-73
2023/02/09 00:30:41;;;;;;;12.17;8.70;;;;;;;;;;5031194;28;20906;-73
2023/02/09 00:33:06;;;;;;;13.00;8.80;;;;;;;;;;5028748;28;20200;-73
2023/02/09 00:35:31;;;;;;;10.33;7.37;;;;;;;;;;5030625;28;20799;-73
2023/02/09 00:37:57;;;;;;;9.20;7.10;;;;;;;;;;5030038;28;20203;-73
2023/02/09 00:40:22;;;;;;;10.17;7.23;;;;;;;;;;5028901;28;20183;-73
2023/02/09 00:42:47;;;;;;;13.73;8.17;;;;;;;;;;5029740;28;20188;-73
2023/02/09 00:48:15;;;;;;;10.60;7.67;;;;;;;;;;5028907;28;20591;-73
2023/02/09 00:50:41;;;;;;;11.60;8.40;;;;;;;;;;5031299;28;20407;-73
2023/02/09 00:53:06;;;;;;;9.30;6.83;;;;;;;;;;5031957;28;20185;-73
2023/02/09 00:55:31;;;;;;;12.53;8.33;;;;;;;;;;5020156;28;20188;-71
2023/02/09 00:57:57;;;;;;;9.47;7.70;;;;;;;;;;5027790;28;20270;-73
2023/02/09 01:00:22;;;;;;;11.17;8.03;;;;;;;;;;5030387;28;20184;-73
2023/02/09 01:02:47;;;;;;;11.53;7.53;;;;;;;;;;5028894;28;20196;-73
2023/02/09 01:05:12;;;;;;;12.00;7.80;;;;;;;;;;5029709;28;20188;-73
2023/02/09 01:07:38;;;;;;;11.47;6.67;;;;;;;;;;5029929;28;20201;-73
2023/02/09 01:10:03;;;;;;;13.47;7.43;;;;;;;;;;5030514;28;20180;-73
2023/02/09 01:12:29;;;;;;;12.50;7.07;;;;;;;;;;5030457;28;20297;-73
2023/02/09 01:14:54;;;;;;;8.60;6.80;;;;;;;;;;5030002;28;20188;-73
2023/02/09 01:17:19;;;;;;;10.27;6.40;;;;;;;;;;5029928;28;20637;-73
2023/02/09 01:19:45;;;;;;;9.57;6.43;;;;;;;;;;5029801;28;20175;-73
2023/02/09 01:22:11;;;;;;;10.63;6.93;;;;;;;;;;5030331;28;20208;-73
2023/02/09 01:24:38;;;;;;;10.57;7.20;;;;;;;;;;5030192;28;20633;-73
2023/02/09 01:27:03;;;;;;;9.80;6.97;;;;;;;;;;5012915;28;20506;-73
2023/02/09 01:29:29;;;;;;;9.40;6.10;;;;;;;;;;5030222;28;20503;-73
2023/02/09 01:31:54;;;;;;;9.80;6.80;;;;;;;;;;5029726;28;20665;-73
2023/02/09 01:34:19;;;;;;;11.43;7.00;;;;;;;;;;5020631;28;20195;-73
2023/02/09 01:36:44;;;;;;;9.13;6.80;;;;;;;;;;5029310;28;20613;-73
2023/02/09 01:39:10;;;;;;;8.40;6.47;;;;;;;;;;5029874;28;20172;-73
2023/02/09 01:41:36;;;;;;;11.87;6.80;;;;;;;;;;5030193;28;20669;-73
2023/02/09 01:44:10;;;;;;;9.57;6.27;;;;;;;;;;5030787;28;20422;-73
2023/02/09 01:46:36;;;;;;;8.23;5.60;;;;;;;;;;5030347;28;20179;-73
2023/02/09 01:49:05;;;;;;;8.80;6.53;;;;;;;;;;5029988;28;20491;-72
2023/02/09 01:51:32;;;;;;;10.87;6.83;;;;;;;;;;5029431;28;20408;-73
2023/02/09 01:53:57;;;;;;;11.70;6.70;;;;;;;;;;5030102;28;20419;-73
2023/02/09 01:56:26;;;;;;;9.07;6.10;;;;;;;;;;5030858;28;20576;-73
2023/02/09 01:58:51;;;;;;;8.47;5.50;;;;;;;;;;5029117;28;20208;-75
2023/02/09 02:01:17;;;;;;;9.97;7.03;;;;;;;;;;5030528;28;20408;-73
2023/02/09 02:03:43;;;;;;;8.43;6.00;;;;;;;;;;5030508;28;20176;-73
2023/02/09 02:06:09;;;;;;;11.67;6.50;;;;;;;;;;5030050;28;20167;-73
2023/02/09 02:08:35;;;;;;;10.50;7.07;;;;;;;;;;5030007;28;20399;-73
2023/02/09 02:11:01;;;;;;;8.93;6.13;;;;;;;;;;5030378;28;20418;-73
2023/02/09 02:13:29;;;;;;;11.30;6.17;;;;;;;;;;5030418;28;20192;-73
2023/02/09 02:15:54;;;;;;;6.80;5.20;;;;;;;;;;5030209;28;20177;-73
2023/02/09 02:18:25;;;;;;;7.73;5.70;;;;;;;;;;5030534;28;20536;-73
2023/02/09 02:20:50;;;;;;;8.57;6.57;;;;;;;;;;5030161;28;20177;-73
2023/02/09 02:23:28;;;;;;;16.50;6.53;;;;;;;;;;5030601;28;20455;-73
2023/02/09 02:25:56;;;;;;;8.63;6.07;;;;;;;;;;5030798;28;20169;-73
2023/02/09 02:28:37;;;;;;;10.77;6.60;;;;;;;;;;5029169;28;20462;-73
2023/02/09 02:31:28;;;;;;;9.10;6.30;;;;;;;;;;5030897;28;20461;-73
2023/02/09 02:33:54;;;;;;;10.87;6.50;;;;;;;;;;5023779;28;20841;-73
2023/02/09 02:36:29;;;;;;;9.93;6.53;;;;;;;;;;5031639;28;20399;-73
2023/02/09 02:38:57;;;;;;;8.63;5.77;;;;;;;;;;5029681;28;20181;-74
2023/02/09 02:42:46;;;;;;;11.60;7.20;;;;;;;;;;5030989;28;20418;-73
2023/02/09 02:44:16;;;;;;;9.40;6.50;;;;;;;;;;5030606;28;20785;-73
2023/02/09 02:46:43;;;;;;;8.30;6.00;;;;;;;;;;5030672;28;20426;-73
2023/02/09 02:49:29;;;;;;;10.17;6.40;;;;;;;;;;5032144;28;20415;-73
2023/02/09 02:51:56;;;;;;;9.00;6.67;;;;;;;;;;5032844;28;20941;-73
2023/02/09 02:54:27;;;;;;;8.77;6.00;;;;;;;;;;5034531;28;20415;-73
2023/02/09 02:56:57;;;;;;;9.00;6.27;;;;;;;;;;5010907;28;20470;-73
2023/02/09 02:59:28;;;;;;;9.83;6.73;;;;;;;;;;5032767;28;20453;-73
2023/02/09 03:02:05;;;;;;;9.47;6.90;;;;;;;;;;5031088;28;20440;-73
2023/02/09 03:04:31;;;;;;;10.70;6.83;;;;;;;;;;5033653;28;20399;-73
2023/02/09 03:06:56;;;;;;;10.07;5.80;;;;;;;;;;5034803;28;20411;-73
2023/02/09 03:09:22;;;;;;;10.40;6.23;;;;;;;;;;5034081;28;20849;-73
2023/02/09 03:11:48;;;;;;;8.87;5.93;;;;;;;;;;5033547;28;20724;-73
2023/02/09 03:14:17;;;;;;;13.10;6.80;;;;;;;;;;5035051;28;20187;-73
2023/02/09 03:17:02;;;;;;;9.70;6.97;;;;;;;;;;5033152;28;20849;-73
2023/02/09 03:19:44;;;;;;;9.90;6.63;;;;;;;;;;5021777;28;20430;-74
2023/02/09 03:22:16;;;;;;;8.97;6.00;;;;;;;;;;5034815;28;20451;-73
2023/02/09 03:24:46;;;;;;;11.57;6.40;;;;;;;;;;5034279;28;20435;-74
2023/02/09 03:27:20;;;;;;;10.87;6.87;;;;;;;;;;5034964;28;20415;-73
2023/02/09 03:29:48;;;;;;;9.93;6.20;;;;;;;;;;5035105;28;20403;-73
2023/02/09 03:32:13;;;;;;;7.33;5.73;;;;;;;;;;5015561;28;20790;-73
2023/02/09 03:34:42;;;;;;;10.40;6.33;;;;;;;;;;5035334;28;20469;-74
2023/02/09 03:37:07;;;;;;;7.63;5.70;;;;;;;;;;5035169;28;20327;-73
2023/02/09 03:39:33;;;;;;;9.67;6.20;;;;;;;;;;5035144;28;20438;-74
2023/02/09 03:41:58;;;;;;;10.77;6.50;;;;;;;;;;5034712;28;20738;-74
2023/02/09 03:44:26;;;;;;;8.37;5.30;;;;;;;;;;5031270;28;20176;-73
2023/02/09 03:46:55;;;;;;;8.13;5.50;;;;;;;;;;5034473;28;20191;-74
2023/02/09 03:49:25;;;;;;;8.90;6.63;;;;;;;;;;5033680;28;20403;-74
2023/02/09 03:51:53;;;;;;;10.27;6.60;;;;;;;;;;5032407;28;20435;-73
2023/02/09 03:54:19;;;;;;;10.43;6.57;;;;;;;;;;5034298;28;20464;-73
2023/02/09 03:56:44;;;;;;;12.50;6.53;;;;;;;;;;5034568;28;20483;-73
2023/02/09 03:59:12;;;;;;;8.83;5.60;;;;;;;;;;5033494;28;20184;-73
2023/02/09 04:01:37;;;;;;;12.10;6.37;;;;;;;;;;5033343;28;20180;-73
2023/02/09 04:04:03;;;;;;;12.37;6.63;;;;;;;;;;5034457;28;20888;-73
2023/02/09 04:06:30;;;;;;;8.17;5.40;;;;;;;;;;5034672;28;20661;-73
2023/02/09 04:08:56;;;;;;;8.33;5.70;;;;;;;;;;5033681;28;20196;-73
2023/02/09 04:11:22;;;;;;;7.97;5.80;;;;;;;;;;5016242;28;20427;-73
2023/02/09 04:13:47;;;;;;;9.30;6.57;;;;;;;;;;5033211;28;20430;-74
2023/02/09 04:16:12;;;;;;;8.80;5.60;;;;;;;;;;5033222;28;20184;-73
2023/02/09 04:18:37;;;;;;;9.17;5.93;;;;;;;;;;5033236;28;20230;-73
2023/02/09 04:21:03;;;;;;;10.40;5.77;;;;;;;;;;5034026;28;20629;-73
2023/02/09 04:23:28;;;;;;;8.47;6.07;;;;;;;;;;5015405;28;20301;-73
2023/02/09 04:25:53;;;;;;;8.57;6.27;;;;;;;;;;5033674;28;20549;-73
2023/02/09 04:28:19;;;;;;;10.10;6.10;;;;;;;;;;5022541;28;20185;-73
2023/02/09 04:30:44;;;;;;;7.83;5.63;;;;;;;;;;5015868;28;20175;-73
2023/02/09 04:33:12;;;;;;;9.57;6.03;;;;;;;;;;5032497;28;20192;-73
2023/02/09 04:35:37;;;;;;;8.23;6.00;;;;;;;;;;5033972;28;20263;-73
2023/02/09 04:38:06;;;;;;;8.53;5.97;;;;;;;;;;5032103;28;20889;-73
2023/02/09 04:40:31;;;;;;;9.37;6.00;;;;;;;;;;5030736;28;20649;-73
2023/02/09 04:42:56;;;;;;;7.13;5.33;;;;;;;;;;5033476;28;20442;-73
2023/02/09 04:45:24;;;;;;;8.97;6.47;;;;;;;;;;5029846;28;20583;-73
2023/02/09 04:47:50;;;;;;;7.20;5.40;;;;;;;;;;5032684;28;20218;-73
2023/02/09 04:50:16;;;;;;;9.70;5.80;;;;;;;;;;5014263;28;20765;-73
2023/02/09 04:52:41;;;;;;;8.30;5.27;;;;;;;;;;5032431;28;20574;-74
2023/02/09 04:55:06;;;;;;;8.47;5.53;;;;;;;;;;5033034;28;20408;-73
2023/02/09 05:00:16;;;;;;;7.30;5.80;;;;;;;;;;5031832;28;20258;-73
2023/02/09 05:02:41;;;;;;;10.20;5.73;;;;;;;;;;5031793;28;20462;-73
2023/02/09 05:05:06;;;;;;;7.03;5.60;;;;;;;;;;5030803;28;20329;-73
2023/02/09 05:07:32;;;;;;;9.33;6.27;;;;;;;;;;5032382;28;20184;-73
2023/02/09 05:09:57;;;;;;;8.40;6.33;;;;;;;;;;5033068;28;20179;-73
2023/02/09 05:15:22;;;;;;;8.25;6.03;;;;;;;;;;5094708;27;1340032;-71
2023/02/09 05:17:47;;;;;;;10.80;6.40;;;;;;;;;;5125004;28;20197;-70
2023/02/09 05:20:12;;;;;;;7.20;5.70;;;;;;;;;;5103859;28;20201;-71
2023/02/09 05:22:37;;;;;;;7.63;5.53;;;;;;;;;;5127405;28;20606;-73
2023/02/09 05:25:03;;;;;;;8.63;5.93;;;;;;;;;;5102246;28;20201;-71
2023/02/09 05:27:28;;;;;;;11.43;5.83;;;;;;;;;;5103235;28;20726;-71
2023/02/09 05:29:53;;;;;;;10.67;7.27;;;;;;;;;;5103855;28;20177;-71
2023/02/09 05:32:18;;;;;;;13.27;7.50;;;;;;;;;;5101032;28;20210;-71
2023/02/09 05:34:44;;;;;;;10.37;6.20;;;;;;;;;;5110887;28;20681;-71
2023/02/09 05:37:09;;;;;;;8.60;6.07;;;;;;;;;;5101492;28;20181;-71
2023/02/09 05:39:34;;;;;;;10.53;6.70;;;;;;;;;;5127513;28;20206;-71
2023/02/09 05:42:15;;;;;;;9.00;5.90;;;;;;;;;;5105665;28;20188;-71
2023/02/09 05:44:49;;;;;;;10.00;6.00;;;;;;;;;;5111079;28;20204;-71
2023/02/09 05:47:18;;;;;;;8.17;6.30;;;;;;;;;;5129126;28;20477;-71
2023/02/09 05:49:44;;;;;;;7.57;5.80;;;;;;;;;;5101387;28;20403;-71
2023/02/09 05:52:10;;;;;;;8.13;5.90;;;;;;;;;;5103294;28;20494;-71
2023/02/09 05:54:35;;;;;;;9.73;5.40;;;;;;;;;;5123973;27;20223;-71
2023/02/09 05:57:00;;;;;;;10.77;6.00;;;;;;;;;;5104760;28;20799;-71
2023/02/09 05:59:26;;;;;;;8.30;5.30;;;;;;;;;;5102528;28;20245;-71
2023/02/09 06:01:51;;;;;;;7.73;5.43;;;;;;;;;;5128266;28;20563;-71
2023/02/09 06:04:16;;;;;;;10.80;6.30;;;;;;;;;;5105077;28;20212;-71
2023/02/09 06:06:41;;;;;;;11.20;8.43;;;;;;;;;;5102163;28;20178;-71
2023/02/09 06:09:07;;;;;;;13.50;9.73;;;;;;;;;;5126088;28;20166;-71
2023/02/09 06:11:32;;;;;;;13.23;9.53;;;;;;;;;;5127659;28;20375;-71
2023/02/09 06:13:57;;;;;;;10.37;7.70;;;;;;;;;;5129677;28;20211;-71
2023/02/09 06:16:23;;;;;;;9.23;6.73;;;;;;;;;;5103494;28;20177;-71
2023/02/09 06:18:48;;;;;;;9.27;5.93;;;;;;;;;;5110707;28;20237;-71
2023/02/09 06:21:16;;;;;;;9.07;6.37;;;;;;;;;;5128525;28;20550;-72
2023/02/09 06:23:41;;;;;;;10.10;6.37;;;;;;;;;;5126826;28;20205;-71
2023/02/09 06:26:07;;;;;;;8.93;6.20;;;;;;;;;;5091211;28;20509;-71
2023/02/09 06:28:32;;;;;;;7.67;6.07;;;;;;;;;;5114458;28;20172;-71
2023/02/09 06:30:57;;;;;;;7.63;6.13;;;;;;;;;;5112827;28;20797;-71
2023/02/09 06:33:23;;;;;;;6.20;4.80;;;;;;;;;;5110394;28;20243;-71
2023/02/09 06:35:48;;;;;;;9.90;6.70;;;;;;;;;;5116423;28;20170;-71
2023/02/09 06:38:13;;;;;;;10.57;7.20;;;;;;;;;;5111552;28;20421;-71
2023/02/09 06:40:39;;;;;;;16.80;8.43;;;;;;;;;;5094054;28;20182;-71
2023/02/09 06:46:50;;;;;;;10.07;6.37;;;;;;;;;;5038738;27;20604;-71
2023/02/09 06:49:16;;;;;;;7.67;6.53;;;;;;;;;;5018881;28;20561;-72
2023/02/09 06:51:41;;;;;;;8.20;5.80;;;;;;;;;;5020025;28;20254;-71
2023/02/09 06:54:07;;;;;;;10.13;6.20;;;;;;;;;;5018240;28;20688;-72
2023/02/09 06:56:32;;;;;;;7.87;6.30;;;;;;;;;;5018728;28;20184;-71
2023/02/09 06:58:57;;;;;;;8.80;5.70;;;;;;;;;;5017790;28;20216;-72
2023/02/09 07:01:22;;;;;;;9.00;6.40;;;;;;;;;;5032470;28;20185;-71
2023/02/09 07:03:48;;;;;;;9.20;6.30;;;;;;;;;;5029915;23;21120;-70
2023/02/09 07:06:14;;;;;;;13.20;6.23;;;;;;;;;;5023888;28;20172;-69
2023/02/09 07:08:40;;;;;;;8.17;6.03;;;;;;;;;;5025155;28;20184;-70
2023/02/09 07:11:06;;;;;;;10.33;6.37;;;;;;;;;;5022907;28;20424;-70
2023/02/09 07:13:32;;;;;;;8.70;6.13;;;;;;;;;;5024030;28;20196;-71
2023/02/09 07:15:58;;;;;;;9.00;6.37;;;;;;;;;;5025827;28;20524;-71
2023/02/09 07:18:24;;;;;;;9.07;6.23;;;;;;;;;;5024126;28;20624;-70
2023/02/09 07:20:56;;;;;;;14.70;6.47;;;;;;;;;;5024749;28;20507;-70
2023/02/09 07:23:24;;;;;;;8.83;6.27;;;;;;;;;;5026593;28;20438;-71
2023/02/09 07:25:50;;;;;;;8.40;5.67;;;;;;;;;;5026530;28;20430;-71
2023/02/09 07:28:15;;;;;;;9.50;6.30;;;;;;;;;;5027014;28;20502;-71
2023/02/09 07:30:41;;;;;;;13.80;7.67;;;;;;;;;;5024313;28;20210;-71
2023/02/09 07:33:07;;;;;;;14.03;6.50;;;;;;;;;;5026588;28;20219;-71
2023/02/09 07:35:32;;;;;;;9.10;6.73;;;;;;;;;;5026431;28;20688;-71
2023/02/09 07:37:57;;;;;;;9.63;6.67;;;;;;;;;;5027109;28;20423;-71
2023/02/09 07:40:23;;;;;;;11.10;5.97;;;;;;;;;;5009277;28;20199;-71
2023/02/09 07:42:50;;;;;;;10.47;7.43;;;;;;;;;;5025779;28;20204;-71
2023/02/09 07:45:15;;;;;;;8.67;6.80;;;;;;;;;;5010359;28;20185;-71
2023/02/09 07:47:43;;;;;;;9.90;6.50;;;;;;;;;;5009605;28;20429;-71
2023/02/09 07:50:08;;;;;;;10.73;6.97;;;;;;;;;;5027959;28;20177;-71
2023/02/09 07:52:33;;;;;;;10.00;6.30;;;;;;;;;;5027127;28;20451;-70
2023/02/09 07:54:58;;;;;;;15.97;6.60;;;;;;;;;;5028324;28;20304;-71
2023/02/09 07:57:26;;;;;;;9.50;5.93;;;;;;;;;;5012915;28;20638;-70
2023/02/09 07:59:51;;;;;;;8.57;6.50;;;;;;;;;;5010687;28;20268;-70
2023/02/09 08:02:23;;;;;;;9.30;6.33;;;;;;;;;;5012154;28;20911;-70
2023/02/09 08:04:48;;;;;;;9.77;6.53;;;;;;;;;;5013377;28;20188;-71
2023/02/09 08:07:14;;;;;;;7.97;5.50;;;;;;;;;;5013101;28;20793;-71
2023/02/09 08:09:39;;;;;;;8.97;7.20;;;;;;;;;;4990389;28;20280;-71
2023/02/09 08:12:06;;;;;;;9.63;6.80;;;;;;;;;;5013683;28;20650;-72
2023/02/09 08:14:43;;;;;;;9.73;6.97;;;;;;;;;;4995121;28;20197;-71
2023/02/09 08:17:20;;;;;;;9.70;6.50;;;;;;;;;;5012918;28;20408;-71
2023/02/09 08:19:48;;;;;;;9.60;6.30;;;;;;;;;;4996249;28;20799;-71
2023/02/09 08:22:15;;;;;;;9.73;6.63;;;;;;;;;;5011587;28;20408;-71
2023/02/09 08:24:41;;;;;;;8.83;6.57;;;;;;;;;;5012451;28;20423;-71
2023/02/09 08:27:06;;;;;;;10.47;6.73;;;;;;;;;;5010323;28;20447;-71
2023/02/09 08:29:32;;;;;;;8.03;5.90;;;;;;;;;;5009510;28;20181;-71
2023/02/09 08:31:57;;;;;;;6.13;5.40;;;;;;;;;;5012243;28;20638;-71
2023/02/09 08:34:22;;;;;;;10.00;6.70;;;;;;;;;;5010861;28;20193;-70
2023/02/09 08:36:48;;;;;;;10.10;6.20;;;;;;;;;;4991768;28;20284;-71
2023/02/09 08:39:13;;;;;;;11.23;6.00;;;;;;;;;;5010675;28;20184;-71
2023/02/09 08:41:38;;;;;;;11.00;6.57;;;;;;;;;;4994878;28;20667;-70
2023/02/09 08:44:09;;;;;;;9.10;6.50;;;;;;;;;;5012932;28;20276;-70
2023/02/09 08:46:35;;;;;;;13.73;6.27;;;;;;;;;;5011730;28;20187;-71
2023/02/09 08:49:00;;;;;;;8.43;6.13;;;;;;;;;;5013284;28;20439;-71
2023/02/09 08:51:25;;;;;;;8.67;6.50;;;;;;;;;;4994244;28;20177;-71
2023/02/09 08:53:51;;;;;;;10.53;6.40;;;;;;;;;;5012124;28;20204;-70
2023/02/09 08:56:21;;;;;;;9.97;6.67;;;;;;;;;;5012909;28;20196;-70
2023/02/09 08:58:49;;;;;;;9.37;6.37;;;;;;;;;;5012118;28;20680;-71
2023/02/09 09:01:14;;;;;;;8.93;6.20;;;;;;;;;;5012363;28;20570;-70
2023/02/09 09:03:40;;;;;;;8.67;6.57;;;;;;;;;;5010528;28;21012;-70
2023/02/09 09:06:06;;;;;;;8.93;6.30;;;;;;;;;;4994092;28;20195;-70
2023/02/09 09:08:33;;;;;;;7.93;6.33;;;;;;;;;;5008194;28;20420;-70
2023/02/09 09:11:01;;;;;;;16.50;6.60;;;;;;;;;;4991251;28;20785;-69
2023/02/09 09:13:26;;;;;;;7.90;5.67;;;;;;;;;;5010970;28;20475;-70
2023/02/09 09:15:54;;;;;;;9.60;6.33;;;;;;;;;;5010041;28;20483;-70
2023/02/09 09:18:19;;;;;;;8.13;6.50;;;;;;;;;;4993083;28;20701;-70
2023/02/09 09:20:45;;;;;;;10.70;6.17;;;;;;;;;;5010587;28;20550;-69
2023/02/09 09:23:10;;;;;;;9.33;5.70;;;;;;;;;;5012135;28;20222;-70
2023/02/09 09:25:38;;;;;;;11.30;6.30;;;;;;;;;;5011106;28;20177;-70
2023/02/09 09:28:04;;;;;;;10.00;6.90;;;;;;;;;;5009773;28;20256;-69
2023/02/09 09:30:30;;;;;;;8.63;6.07;;;;;;;;;;5010659;28;20569;-69
2023/02/09 09:32:55;;;;;;;11.33;6.83;;;;;;;;;;5009590;28;20200;-69
2023/02/09 09:35:20;;;;;;;8.50;5.60;;;;;;;;;;5010698;28;20197;-69
2023/02/09 09:37:49;;;;;;;9.77;5.93;;;;;;;;;;4992439;28;20181;-69
2023/02/09 09:40:22;;;;;;;11.20;6.53;;;;;;;;;;5010718;28;20170;-69
2023/02/09 09:42:51;;;;;;;8.60;6.03;;;;;;;;;;5010657;28;20452;-69
2023/02/09 09:45:20;;;;;;;9.80;6.70;;;;;;;;;;5010238;28;20491;-69
2023/02/09 09:47:55;;;;;;;10.43;6.20;;;;;;;;;;5009421;28;20408;-69
2023/02/09 09:50:23;;;;;;;9.63;6.77;;;;;;;;;;5009911;28;20419;-69
2023/02/09 09:52:51;;;;;;;10.83;7.33;;;;;;;;;;5011532;28;20491;-69
2023/02/09 09:55:22;;;;;;;12.30;5.80;;;;;;;;;;5009513;28;20452;-68
2023/02/09 09:57:48;;;;;;;10.00;6.43;;;;;;;;;;5010324;28;20436;-68
2023/02/09 10:00:19;;;;;;;9.70;5.93;;;;;;;;;;5009074;28;20416;-68
2023/02/09 10:02:44;;;;;;;9.10;5.80;;;;;;;;;;5010120;28;20446;-69
2023/02/09 10:05:12;;;;;;;11.20;6.80;;;;;;;;;;5008635;28;20420;-68
2023/02/09 10:07:39;;;;;;;11.60;7.10;;;;;;;;;;5009793;28;20177;-69
2023/02/09 10:10:11;;;;;;;10.87;6.17;;;;;;;;;;5008102;28;20443;-69
2023/02/09 10:12:37;;;;;;;9.40;6.53;;;;;;;;;;4992641;28;20447;-69
2023/02/09 10:15:21;;;;;;;8.50;6.50;;;;;;;;;;5009964;28;20452;-69
2023/02/09 10:17:46;;;;;;;9.03;6.40;;;;;;;;;;5010451;28;20443;-69
2023/02/09 10:20:12;;;;;;;8.90;6.70;;;;;;;;;;5008797;28;20853;-69
2023/02/09 10:22:37;;;;;;;8.57;6.87;;;;;;;;;;5010497;28;20633;-69
2023/02/09 10:25:22;;;;;;;10.10;6.80;;;;;;;;;;5009131;28;20177;-69
2023/02/09 10:27:48;;;;;;;7.80;6.27;;;;;;;;;;4992139;28;20553;-69
2023/02/09 10:30:17;;;;;;;8.47;6.77;;;;;;;;;;5010250;28;20411;-69
2023/02/09 10:32:43;;;;;;;9.90;6.70;;;;;;;;;;5008446;28;20259;-69
2023/02/09 10:35:28;;;;;;;10.20;6.30;;;;;;;;;;5009546;28;20455;-69
2023/02/09 10:38:03;;;;;;;10.97;6.90;;;;;;;;;;5008147;28;20408;-69
2023/02/09 10:40:33;;;;;;;10.50;7.30;;;;;;;;;;5008755;28;20404;-69
2023/02/09 10:43:03;;;;;;;14.83;7.00;;;;;;;;;;5009823;28;20510;-69
2023/02/09 10:45:38;;;;;;;8.77;6.47;;;;;;;;;;5009810;28;20423;-69
2023/02/09 10:48:12;;;;;;;8.60;6.60;;;;;;;;;;5009071;28;20432;-69
2023/02/09 10:50:49;;;;;;;8.80;6.47;;;;;;;;;;5010343;28;20427;-69
2023/02/09 10:53:20;;;;;;;11.73;6.40;;;;;;;;;;5009651;28;20934;-69
2023/02/09 10:55:45;;;;;;;13.73;7.20;;;;;;;;;;5009135;28;20444;-69
2023/02/09 10:58:10;;;;;;;10.53;7.27;;;;;;;;;;4991503;28;20428;-69
2023/02/09 11:00:42;;;;;;;10.40;7.70;;;;;;;;;;5009244;28;20208;-69
2023/02/09 11:03:21;;;;;;;15.03;7.30;;;;;;;;;;5008849;28;20240;-69
2023/02/09 11:05:56;;;;;;;12.53;7.07;;;;;;;;;;5008695;28;20418;-69
2023/02/09 11:08:22;;;;;;;10.93;7.87;;;;;;;;;;5008304;28;20415;-69
2023/02/09 11:10:57;;;;;;;10.30;7.50;;;;;;;;;;5008273;28;20939;-69
2023/02/09 11:13:24;;;;;;;11.77;7.17;;;;;;;;;;5009373;28;20459;-69
2023/02/09 11:16:08;;;;;;;11.20;7.77;;;;;;;;;;5009614;28;20451;-69
2023/02/09 11:18:34;;;;;;;10.40;8.00;;;;;;;;;;5008675;28;20486;-70
2023/02/09 11:21:09;;;;;;;15.53;7.47;;;;;;;;;;5009227;28;20670;-69
2023/02/09 11:23:41;;;;;;;9.63;7.60;;;;;;;;;;5007801;28;20197;-69
2023/02/09 11:26:12;;;;;;;10.80;7.67;;;;;;;;;;5009581;28;21012;-70
2023/02/09 11:28:46;;;;;;;13.60;7.30;;;;;;;;;;4990582;28;20439;-69
2023/02/09 11:31:12;;;;;;;12.07;7.57;;;;;;;;;;5009661;28;20948;-69
2023/02/09 11:33:41;;;;;;;10.37;8.00;;;;;;;;;;5011704;28;20507;-70
2023/02/09 11:36:12;;;;;;;12.27;8.30;;;;;;;;;;5012063;28;20254;-69
2023/02/09 11:38:40;;;;;;;12.00;8.73;;;;;;;;;;4993493;28;20427;-69
2023/02/09 11:42:42;;;;;;;11.90;7.93;;;;;;;;;;4995772;28;20448;-70
2023/02/09 11:43:56;;;;;;;11.77;8.50;;;;;;;;;;5012149;28;20420;-69
2023/02/09 11:46:23;;;;;;;10.00;7.93;;;;;;;;;;5010972;28;20489;-70
2023/02/09 11:49:00;;;;;;;12.23;7.33;;;;;;;;;;4994137;28;20750;-70
2023/02/09 11:51:25;;;;;;;12.20;8.40;;;;;;;;;;5012502;28;20490;-70
2023/02/09 11:53:57;;;;;;;13.90;8.10;;;;;;;;;;5012460;28;20875;-69
2023/02/09 11:56:23;;;;;;;12.70;8.00;;;;;;;;;;5010348;28;20227;-70
2023/02/09 11:58:55;;;;;;;12.23;8.97;;;;;;;;;;4992816;28;20904;-69
2023/02/09 12:01:26;;;;;;;10.93;8.50;;;;;;;;;;5011503;28;20439;-69
2023/02/09 12:03:54;;;;;;;11.40;7.83;;;;;;;;;;5011723;28;20531;-69
2023/02/09 12:06:21;;;;;;;10.87;7.97;;;;;;;;;;5011327;28;20617;-70
2023/02/09 12:09:07;;;;;;;13.47;10.07;;;;;;;;;;5011516;28;20887;-69
2023/02/09 12:11:38;;;;;;;11.43;8.67;;;;;;;;;;5011294;28;20404;-70
2023/02/09 12:14:15;;;;;;;16.73;8.80;;;;;;;;;;5012703;28;20428;-70
2023/02/09 12:16:43;;;;;;;12.10;9.10;;;;;;;;;;5010791;28;20780;-70
2023/02/09 12:19:34;;;;;;;11.27;8.60;;;;;;;;;;5011235;28;20396;-69
2023/02/09 12:22:19;;;;;;;12.50;9.33;;;;;;;;;;5007361;28;20764;-69
2023/02/09 12:25:03;;;;;;;13.50;8.70;;;;;;;;;;5010874;28;20408;-68
2023/02/09 12:27:28;;;;;;;17.53;9.23;;;;;;;;;;5010617;28;20462;-68
2023/02/09 12:29:53;;;;;;;18.23;10.23;;;;;;;;;;5012114;28;20770;-68
2023/02/09 12:32:24;;;;;;;15.60;9.33;;;;;;;;;;5011638;28;20220;-68
2023/02/09 12:34:52;;;;;;;12.33;9.10;;;;;;;;;;5011497;28;20624;-68
2023/02/09 12:37:23;;;;;;;14.47;10.27;;;;;;;;;;5008487;28;20448;-68
2023/02/09 12:40:03;;;;;;;13.97;9.60;;;;;;;;;;5011402;28;20408;-70
2023/02/09 12:42:37;;;;;;;21.33;10.67;;;;;;;;;;5009480;28;20433;-70
2023/02/09 12:45:22;;;;;;;15.10;10.30;;;;;;;;;;5010304;28;20924;-68
2023/02/09 12:47:55;;;;;;;13.23;8.73;;;;;;;;;;5010552;28;20452;-68
2023/02/09 12:50:23;;;;;;;12.60;9.73;;;;;;;;;;5010167;28;20473;-69
2023/02/09 12:53:07;;;;;;;12.20;9.33;;;;;;;;;;5010340;28;20467;-69
2023/02/09 12:55:33;;;;;;;14.13;10.20;;;;;;;;;;5009727;28;21381;-69
2023/02/09 12:57:58;;;;;;;14.33;10.03;;;;;;;;;;5010568;28;20412;-69
2023/02/09 13:00:31;;;;;;;16.63;10.13;;;;;;;;;;5010873;28;20245;-69
2023/02/09 13:03:04;;;;;;;11.83;9.07;;;;;;;;;;5010898;28;20208;-69
2023/02/09 13:05:37;;;;;;;14.40;9.93;;;;;;;;;;5009882;28;20424;-69
2023/02/09 13:08:12;;;;;;;14.50;10.10;;;;;;;;;;5010376;28;20935;-69
2023/02/09 13:10:46;;;;;;;18.57;10.80;;;;;;;;;;5013734;23;20532;-75
2023/02/09 13:13:12;;;;;;;15.00;9.90;;;;;;;;;;5007800;28;20411;-75
2023/02/09 13:15:49;;;;;;;14.63;9.77;;;;;;;;;;5007683;28;20474;-75
2023/02/09 13:18:33;;;;;;;15.17;9.10;;;;;;;;;;5006220;28;20239;-75
2023/02/09 13:21:14;;;;;;;18.13;11.37;;;;;;;;;;5003517;28;20881;-75
2023/02/09 13:23:49;;;;;;;14.70;9.37;;;;;;;;;;5010208;28;20891;-75
2023/02/09 13:26:19;;;;;;;17.53;10.87;;;;;;;;;;4992807;28;20951;-75
2023/02/09 13:28:45;;;;;;;16.07;10.50;;;;;;;;;;5010602;28;20503;-75
2023/02/09 13:31:29;;;;;;;14.93;9.67;;;;;;;;;;4992358;28;20914;-75
2023/02/09 13:33:57;;;;;;;15.83;10.83;;;;;;;;;;5011019;28;20211;-75
2023/02/09 13:36:28;;;;;;;13.40;10.43;;;;;;;;;;5010073;28;20461;-75
2023/02/09 13:38:53;;;;;;;17.37;10.87;;;;;;;;;;5010271;28;20440;-75
2023/02/09 13:41:31;;;;;;;15.47;11.43;;;;;;;;;;5008835;28;20468;-75
2023/02/09 13:43:56;;;;;;;14.07;10.67;;;;;;;;;;5010100;28;20188;-75
2023/02/09 13:46:23;;;;;;;15.80;9.97;;;;;;;;;;5011243;28;20413;-75
2023/02/09 13:48:48;;;;;;;13.30;10.63;;;;;;;;;;5010401;28;20263;-75
2023/02/09 13:51:17;;;;;;;14.63;10.67;;;;;;;;;;5010093;28;20933;-75
2023/02/09 13:54:00;;;;;;;14.40;10.60;;;;;;;;;;4992899;28;20662;-75
2023/02/09 13:56:28;;;;;;;16.07;10.73;;;;;;;;;;5009650;28;20478;-75
2023/02/09 13:58:54;;;;;;;15.60;10.87;;;;;;;;;;5009580;28;20452;-75
2023/02/09 14:01:30;;;;;;;16.90;11.47;;;;;;;;;;5008220;28;20451;-75
2023/02/09 14:04:07;;;;;;;15.10;10.63;;;;;;;;;;5009622;28;20414;-75
2023/02/09 14:06:38;;;;;;;17.90;12.93;;;;;;;;;;5009284;28;20506;-75
2023/02/09 14:09:06;;;;;;;15.33;12.13;;;;;;;;;;5007928;28;20422;-75
2023/02/09 14:11:36;;;;;;;18.20;12.10;;;;;;;;;;5010257;28;20448;-74
2023/02/09 14:14:03;;;;;;;15.40;11.07;;;;;;;;;;5010039;28;20424;-75
2023/02/09 14:16:32;;;;;;;14.33;10.17;;;;;;;;;;5008997;28;20624;-75
2023/02/09 14:18:58;;;;;;;14.80;11.70;;;;;;;;;;4992374;28;20570;-75
2023/02/09 14:21:52;;;;;;;17.03;11.83;;;;;;;;;;5009864;28;20440;-75
2023/02/09 14:24:17;;;;;;;23.10;12.60;;;;;;;;;;5006372;28;20579;-75
2023/02/09 14:26:53;;;;;;;24.70;10.63;;;;;;;;;;5009996;28;20906;-75
2023/02/09 14:29:29;;;;;;;19.30;12.63;;;;;;;;;;5010153;28;20756;-75
2023/02/09 14:32:05;;;;;;;16.97;12.60;;;;;;;;;;5006247;28;20428;-75
2023/02/09 14:34:35;;;;;;;16.53;10.80;;;;;;;;;;4991033;28;20516;-75
2023/02/09 14:37:03;;;;;;;19.77;12.83;;;;;;;;;;4991685;28;20424;-75
2023/02/09 14:39:31;;;;;;;20.00;11.53;;;;;;;;;;5006863;28;20414;-75
2023/02/09 14:41:58;;;;;;;17.00;12.73;;;;;;;;;;5007721;28;20427;-75
2023/02/09 14:44:24;;;;;;;15.70;12.13;;;;;;;;;;5010232;28;20427;-75
2023/02/09 14:46:52;;;;;;;24.30;12.50;;;;;;;;;;5014771;28;20432;-75
2023/02/09 14:49:18;;;;;;;17.13;12.50;;;;;;;;;;5009907;28;20423;-75
2023/02/09 14:51:43;;;;;;;16.03;12.37;;;;;;;;;;4991747;28;20444;-75
2023/02/09 14:54:25;;;;;;;21.93;13.10;;;;;;;;;;5009658;28;20660;-74